Time;durP1;ratioP1;P1;durP2;ratioP2;P2;SDS_P1;SDS_P2;PMS_P1;PMS_P2;Temp;Humidity;BMP_temperature;BMP_pressure;BME280_temperature;BME280_humidity;BME280_pressure;Samples;Min_cycle;Max_cycle;Signal;HPM_P1;HPM_P2
2023/01/08 00:02:47;;;;;;;1.63;1.20;;;12.50;99.90;;;;;;6105999;23;20424;-86
2023/01/08 00:08:44;;;;;;;3.27;1.50;;;12.60;99.90;;;;;;6104419;23;20495;-88
2023/01/08 00:11:57;;;;;;;1.90;1.57;;;12.60;99.90;;;;;;6017130;23;20999;-85
2023/01/08 00:14:57;;;;;;;1.97;1.50;;;12.50;99.90;;;;;;5989200;23;20414;-85
2023/01/08 00:18:12;;;;;;;1.90;1.80;;;12.60;99.90;;;;;;6015241;23;20949;-85
2023/01/08 00:24:55;;;;;;;1.47;1.13;;;12.60;99.90;;;;;;5991566;23;20407;-83
2023/01/08 00:28:39;;;;;;;1.40;1.30;;;12.60;99.90;;;;;;5959851;24;20800;-83
2023/01/08 00:38:24;;;;;;;1.40;1.30;;;12.50;99.90;;;;;;6198480;23;20451;-85
2023/01/08 00:41:14;;;;;;;1.70;1.60;;;12.60;99.90;;;;;;6157308;23;20402;-83
2023/01/08 00:44:26;;;;;;;1.50;1.40;;;12.60;99.90;;;;;;6158898;23;20490;-86
2023/01/08 00:47:24;;;;;;;1.13;1.13;;;12.60;99.90;;;;;;6196297;23;20716;-84
2023/01/08 00:50:18;;;;;;;1.33;1.23;;;12.60;99.90;;;;;;6193884;23;20409;-84
2023/01/08 00:52:59;;;;;;;0.93;0.93;;;12.50;99.90;;;;;;6171297;23;20446;-86
2023/01/08 00:55:26;;;;;;;2.50;1.10;;;12.50;99.90;;;;;;6197606;23;20431;-84
2023/01/08 00:57:57;;;;;;;2.27;1.27;;;12.60;99.90;;;;;;6177309;23;20429;-88
2023/01/08 01:00:29;;;;;;;1.13;1.03;;;12.70;99.90;;;;;;6206550;23;20429;-86
2023/01/08 01:03:16;;;;;;;1.50;1.10;;;12.70;99.90;;;;;;6183505;23;20410;-84
2023/01/08 01:06:20;;;;;;;1.60;1.50;;;12.70;99.90;;;;;;6175086;23;20434;-85
2023/01/08 01:09:01;;;;;;;2.00;1.30;;;12.70;99.90;;;;;;6169950;23;20489;-86
2023/01/08 01:11:39;;;;;;;2.07;1.30;;;12.60;99.90;;;;;;6198789;23;20417;-86
2023/01/08 01:14:10;;;;;;;1.80;1.23;;;12.50;99.90;;;;;;6165383;23;20434;-85
2023/01/08 01:16:51;;;;;;;2.20;1.60;;;12.60;99.90;;;;;;6195800;23;20434;-84
2023/01/08 01:19:30;;;;;;;1.40;1.30;;;12.60;99.90;;;;;;6147226;23;20425;-86
2023/01/08 01:22:02;;;;;;;1.80;1.40;;;12.60;99.90;;;;;;6192797;23;20418;-86
2023/01/08 01:24:48;;;;;;;1.50;1.40;;;12.70;99.90;;;;;;6169822;23;20401;-83
2023/01/08 01:27:31;;;;;;;1.90;1.67;;;12.60;99.90;;;;;;6193858;23;20417;-86
2023/01/08 01:30:07;;;;;;;2.90;1.77;;;12.60;99.90;;;;;;6167263;23;20453;-86
2023/01/08 01:32:56;;;;;;;;;;;;;;;;;;;;;
2023/01/08 01:35:35;;;;;;;2.27;1.40;;;12.50;99.90;;;;;;6166529;23;20470;-86
2023/01/08 01:38:16;;;;;;;2.10;1.90;;;12.50;99.90;;;;;;6169009;23;20437;-84
2023/01/08 01:40:52;;;;;;;1.60;1.50;;;12.60;99.90;;;;;;6168215;23;20413;-85
2023/01/08 01:43:43;;;;;;;3.67;1.30;;;12.60;99.90;;;;;;6168768;23;20418;-86
2023/01/08 01:46:37;;;;;;;1.50;1.40;;;12.70;99.90;;;;;;6166091;23;20438;-86
2023/01/08 01:49:21;;;;;;;2.03;1.53;;;12.60;99.90;;;;;;6166860;23;20408;-85
2023/01/08 01:51:52;;;;;;;1.70;1.60;;;12.60;99.90;;;;;;6169250;23;21212;-85
2023/01/08 01:54:41;;;;;;;3.93;1.80;;;12.70;99.90;;;;;;6170407;23;20460;-87
2023/01/08 01:57:18;;;;;;;1.60;1.50;;;12.70;99.90;;;;;;6170116;23;20406;-85
2023/01/08 02:00:08;;;;;;;;;;;;;;;;;;;;;
2023/01/08 02:02:45;;;;;;;2.50;2.30;;;12.50;99.90;;;;;;6194122;23;20469;-85
2023/01/08 02:05:41;;;;;;;2.87;2.00;;;12.50;99.90;;;;;;6171426;23;20493;-85
2023/01/08 02:08:36;;;;;;;2.37;1.60;;;12.50;99.90;;;;;;6157216;23;20393;-86
2023/01/08 02:11:13;;;;;;;2.40;2.20;;;12.50;99.90;;;;;;6174223;23;20412;-86
2023/01/08 02:13:54;;;;;;;2.27;2.07;;;12.50;99.90;;;;;;6173799;23;20441;-85
2023/01/08 02:16:53;;;;;;;1.80;1.70;;;12.40;99.90;;;;;;6181807;23;20418;-85
2023/01/08 02:20:04;;;;;;;2.50;2.13;;;12.40;99.90;;;;;;6185255;22;20422;-84
2023/01/08 02:23:16;;;;;;;2.00;1.90;;;12.50;99.90;;;;;;6171203;22;20409;-89
2023/01/08 02:26:33;;;;;;;1.70;1.60;;;12.50;99.90;;;;;;6210607;22;20454;-91
2023/01/08 02:29:13;;;;;;;5.17;1.80;;;12.50;99.90;;;;;;6079834;23;21102;-88
2023/01/08 02:31:43;;;;;;;3.70;1.80;;;12.50;99.90;;;;;;6077253;23;20421;-86
2023/01/08 02:34:15;;;;;;;1.70;1.60;;;12.40;99.90;;;;;;6157111;23;20461;-88
2023/01/08 02:36:49;;;;;;;4.30;2.70;;;12.20;99.90;;;;;;6170972;23;20457;-86
2023/01/08 02:39:31;;;;;;;2.17;1.97;;;12.40;99.90;;;;;;6183572;23;20409;-88
2023/01/08 02:42:26;;;;;;;3.17;1.70;;;12.40;99.90;;;;;;6171894;23;20409;-86
2023/01/08 02:45:15;;;;;;;2.73;2.07;;;12.40;99.90;;;;;;6186897;23;20457;-85
2023/01/08 02:47:59;;;;;;;2.10;1.90;;;12.30;99.90;;;;;;6162789;23;20489;-87
2023/01/08 02:51:15;;;;;;;2.40;2.10;;;12.10;99.90;;;;;;6160709;23;20972;-87
2023/01/08 02:53:59;;;;;;;1.63;1.53;;;12.20;99.90;;;;;;6160774;23;20438;-84
2023/01/08 02:56:44;;;;;;;1.80;1.70;;;12.40;99.90;;;;;;6162488;23;20430;-85
2023/01/08 02:59:22;;;;;;;2.20;1.70;;;12.40;99.90;;;;;;6161149;23;20429;-89
2023/01/08 03:02:04;;;;;;;3.07;2.83;;;12.40;99.90;;;;;;6163927;23;20406;-86
2023/01/08 03:04:38;;;;;;;2.13;1.93;;;12.40;99.90;;;;;;6161840;23;20417;-86
2023/01/08 03:07:29;;;;;;;2.07;1.97;;;12.40;99.90;;;;;;6159472;23;20437;-84
2023/01/08 03:14:59;;;;;;;1.87;1.60;;;12.40;99.90;;;;;;6084974;23;20401;-86
2023/01/08 03:21:48;;;;;;;4.57;1.87;;;12.30;99.90;;;;;;6041043;23;20503;-86
2023/01/08 03:25:36;;;;;;;;;;;;;;;;;;;;;
2023/01/08 03:32:06;;;;;;;1.83;1.73;;;12.10;99.90;;;;;;6010851;23;20419;-84
2023/01/08 03:42:27;;;;;;;1.70;1.47;;;12.20;99.90;;;;;;6060394;23;20938;-86
2023/01/08 03:45:29;;;;;;;3.20;1.70;;;12.30;99.90;;;;;;6054009;22;20551;-84
2023/01/08 03:48:22;;;;;;;3.00;2.00;;;12.30;99.90;;;;;;6038201;23;20416;-85
2023/01/08 04:02:32;;;;;;;1.50;1.40;;;12.40;99.90;;;;;;5871959;24;20448;-82
2023/01/08 04:09:46;;;;;;;2.00;1.77;;;12.40;99.90;;;;;;5793839;24;20563;-84
2023/01/08 04:12:53;;;;;;;1.67;1.30;;;12.30;99.90;;;;;;5842023;24;20466;-86
2023/01/08 04:16:34;;;;;;;2.70;1.47;;;12.50;99.90;;;;;;5821876;24;20444;-84
2023/01/08 04:19:30;;;;;;;1.20;1.10;;;12.40;99.90;;;;;;5717251;25;20463;-84
2023/01/08 04:23:15;;;;;;;1.37;1.30;;;12.40;99.90;;;;;;5722718;24;20903;-85
2023/01/08 04:30:08;;;;;;;2.40;1.20;;;12.40;99.90;;;;;;5902159;24;20895;-84
2023/01/08 04:44:12;;;;;;;1.20;1.03;;;12.40;99.90;;;;;;5970471;23;21018;-85
2023/01/08 04:47:22;;;;;;;2.07;1.87;;;12.50;99.90;;;;;;6039965;23;20413;-88
2023/01/08 04:54:33;;;;;;;0.90;0.90;;;12.50;99.90;;;;;;6018756;23;20461;-85
2023/01/08 05:04:09;;;;;;;0.70;0.70;;;12.40;99.90;;;;;;6190239;23;20405;-84
2023/01/08 05:07:56;;;;;;;;;;;;;;;;;;;;;
2023/01/08 05:11:30;;;;;;;1.13;0.90;;;12.50;99.90;;;;;;5952396;23;20394;-89
2023/01/08 05:15:10;;;;;;;;;;;;;;;;;;;;;
2023/01/08 05:18:52;;;;;;;;;;;;;;;;;;;;;
2023/01/08 05:22:19;;;;;;;0.70;0.50;;;12.60;99.90;;;;;;5927407;24;20442;-84
2023/01/08 05:25:23;;;;;;;0.70;0.63;;;12.60;99.90;;;;;;6044737;23;20414;-84
2023/01/08 05:28:47;;;;;;;0.70;0.60;;;12.50;99.90;;;;;;6043385;23;20842;-85
2023/01/08 05:35:58;;;;;;;0.60;0.40;;;12.40;99.90;;;;;;5903513;24;20477;-85
2023/01/08 05:39:29;;;;;;;0.50;0.50;;;12.40;99.90;;;;;;5798231;24;20509;-85
2023/01/08 05:46:53;;;;;;;1.10;0.53;;;12.30;99.90;;;;;;5813592;24;20579;-85
2023/01/08 05:57:06;;;;;;;0.90;0.53;;;12.50;99.90;;;;;;5970213;23;20841;-87
2023/01/08 06:11:36;;;;;;;0.60;0.60;;;12.30;99.90;;;;;;6030586;23;20427;-86
2023/01/08 06:14:54;;;;;;;;;;;;;;;;;;;;;
2023/01/08 06:22:40;;;;;;;;;;;;;;;;;;;;;
2023/01/08 06:30:10;;;;;;;0.70;0.50;;;12.30;99.90;;;;;;6012509;23;20412;-87
2023/01/08 06:33:20;;;;;;;0.67;0.67;;;12.20;99.90;;;;;;5995597;23;20479;-84
2023/01/08 06:36:27;;;;;;;2.40;0.70;;;12.10;99.90;;;;;;5931217;24;20424;-86
2023/01/08 06:44:13;;;;;;;1.80;0.90;;;12.30;99.90;;;;;;5974125;24;20529;-86
2023/01/08 06:55:40;;;;;;;;;;;;;;;;;;;;;
2023/01/08 07:10:10;;;;;;;0.60;0.60;;;12.30;99.70;;;;;;5957539;24;20979;-87
2023/01/08 07:17:50;;;;;;;2.10;1.43;;;12.10;99.70;;;;;;5971949;23;20454;-89
2023/01/08 07:21:29;;;;;;;;;;;;;;;;;;;;;
2023/01/08 07:35:52;;;;;;;;;;;;;;;;;;;;;
2023/01/08 07:47:25;;;;;;;;;;;;;;;;;;;;;
2023/01/08 08:08:41;;;;;;;1.23;1.10;;;12.00;99.90;;;;;;6190070;23;20434;-85
2023/01/08 08:12:03;;;;;;;0.60;0.60;;;12.10;99.90;;;;;;6081966;23;20455;-85
2023/01/08 08:34:06;;;;;;;;;;;;;;;;;;;;;
2023/01/08 08:41:55;;;;;;;;;;;;;;;;;;;;;
2023/01/08 08:52:14;;;;;;;2.83;1.20;;;11.80;99.90;;;;;;6012617;23;20412;-85
2023/01/08 08:55:32;;;;;;;3.40;0.70;;;11.60;99.90;;;;;;6014487;23;20506;-85
2023/01/08 08:58:28;;;;;;;3.90;1.20;;;11.80;99.90;;;;;;5993807;23;20514;-86
2023/01/08 09:01:30;;;;;;;1.33;0.90;;;11.90;99.90;;;;;;6024700;23;20415;-87
2023/01/08 09:08:32;;;;;;;2.53;0.87;;;11.90;99.90;;;;;;5960507;24;20510;-85
2023/01/08 09:12:12;;;;;;;2.60;0.73;;;11.80;99.60;;;;;;5972956;23;20404;-87
2023/01/08 09:15:47;;;;;;;;;;;;;;;;;;;;;
2023/01/08 09:22:36;;;;;;;2.20;1.00;;;12.00;98.50;;;;;;6131218;23;20421;-86
2023/01/08 09:29:38;;;;;;;1.57;0.90;;;11.90;99.10;;;;;;6159745;23;20410;-85
2023/01/08 09:32:48;;;;;;;1.40;0.90;;;12.00;98.80;;;;;;6103781;23;20397;-86
2023/01/08 09:36:05;;;;;;;0.80;0.70;;;12.10;98.30;;;;;;6107581;23;20442;-86
2023/01/08 09:42:53;;;;;;;1.43;1.20;;;12.00;98.00;;;;;;6043278;23;20390;-87
2023/01/08 09:50:01;;;;;;;1.57;1.47;;;12.20;98.30;;;;;;5874410;24;20541;-86
2023/01/08 09:53:01;;;;;;;1.03;0.90;;;12.10;98.60;;;;;;5871933;24;20435;-85
2023/01/08 09:56:09;;;;;;;;;;;;;;;;;;;;;
2023/01/08 10:06:56;;;;;;;3.00;0.97;;;12.90;99.80;;;;;;5930286;24;20441;-85
2023/01/08 10:18:15;;;;;;;1.70;1.07;;;13.20;97.30;;;;;;5958142;24;20408;-88
2023/01/08 10:25:55;;;;;;;2.93;0.93;;;13.30;96.70;;;;;;6162621;23;20411;-85
2023/01/08 10:29:43;;;;;;;;;;;;;;;;;;;;;
2023/01/08 10:32:31;;;;;;;2.43;0.70;;;13.30;96.50;;;;;;6161181;23;20450;-85
2023/01/08 10:40:05;;;;;;;1.10;1.00;;;13.40;95.60;;;;;;6016025;23;20434;-86
2023/01/08 10:52:45;;;;;;;2.00;1.17;;;13.10;95.90;;;;;;6191028;23;20517;-86
2023/01/08 10:56:30;;;;;;;2.03;1.20;;;13.10;95.80;;;;;;6158384;23;20528;-85
2023/01/08 10:59:34;;;;;;;;;;;;;;;;;;;;;
2023/01/08 11:03:26;;;;;;;1.57;0.70;;;13.20;95.90;;;;;;6193845;22;20464;-85
2023/01/08 11:06:17;;;;;;;0.80;0.80;;;13.10;95.60;;;;;;6151559;23;20540;-89
2023/01/08 11:09:55;;;;;;;;;;;;;;;;;;;;;
2023/01/08 11:13:15;;;;;;;2.10;1.00;;;13.10;96.20;;;;;;6194729;23;20381;-85
2023/01/08 11:17:21;;;;;;;;;;;;;;;;;;;;;
2023/01/08 11:21:04;;;;;;;0.93;0.70;;;13.20;96.20;;;;;;5908689;24;20471;-84
2023/01/08 11:24:54;;;;;;;3.57;1.30;;;13.10;96.40;;;;;;5931256;23;20845;-87
2023/01/08 11:28:14;;;;;;;2.60;0.90;;;13.00;96.40;;;;;;6150303;23;20437;-86
2023/01/08 11:35:44;;;;;;;0.70;0.70;;;12.90;96.80;;;;;;5999415;23;20459;-84
2023/01/08 11:39:00;;;;;;;3.03;1.10;;;13.00;96.70;;;;;;5979294;23;20387;-90
2023/01/08 12:00:47;;;;;;;1.53;1.40;;;13.00;97.50;;;;;;5989087;23;20400;-86
2023/01/08 12:12:55;;;;;;;;;;;;;;;;;;;;;
2023/01/08 12:35:34;;;;;;;0.60;0.60;;;12.60;99.90;;;;;;6014857;23;20541;-85
2023/01/08 12:39:33;;;;;;;;;;;;;;;;;;;;;
2023/01/08 12:46:44;;;;;;;;;;;;;;;;;;;;;
2023/01/08 12:54:05;;;;;;;0.67;0.67;;;12.70;99.90;;;;;;6058615;23;20555;-84
2023/01/08 13:00:51;;;;;;;0.90;0.60;;;12.60;99.90;;;;;;6075189;23;20426;-84
2023/01/08 13:15:34;;;;;;;2.10;0.40;;;12.60;98.70;;;;;;6164861;23;20462;-84
2023/01/08 13:19:33;;;;;;;0.77;0.77;;;12.50;98.60;;;;;;6053797;23;20402;-86
2023/01/08 13:38:08;;;;;;;0.70;0.60;;;12.60;97.60;;;;;;5923784;24;20477;-87
2023/01/08 13:42:06;;;;;;;1.93;1.20;;;12.60;97.10;;;;;;5871810;24;20399;-85
2023/01/08 13:45:48;;;;;;;0.80;0.70;;;12.50;97.20;;;;;;5900669;24;20390;-85
2023/01/08 13:49:50;;;;;;;1.97;0.80;;;12.60;97.00;;;;;;5967229;24;20508;-88
2023/01/08 14:04:28;;;;;;;1.13;0.60;;;12.90;96.70;;;;;;5918388;24;20890;-86
2023/01/08 14:11:01;;;;;;;1.10;0.60;;;12.80;96.30;;;;;;5789029;24;20409;-84
2023/01/08 14:14:33;;;;;;;1.43;0.80;;;12.90;95.80;;;;;;5878144;24;20529;-86
2023/01/08 14:21:20;;;;;;;2.30;0.60;;;12.70;95.40;;;;;;6041847;23;20405;-86
2023/01/08 14:24:53;;;;;;;1.07;0.97;;;12.60;96.00;;;;;;6019387;23;20391;-85
2023/01/08 14:31:55;;;;;;;0.50;0.50;;;12.50;96.20;;;;;;5850267;24;20404;-84
2023/01/08 14:45:47;;;;;;;;;;;;;;;;;;;;;
2023/01/08 14:52:28;;;;;;;1.23;0.73;;;12.50;95.00;;;;;;5901957;24;21136;-85
2023/01/08 14:59:27;;;;;;;0.70;0.50;;;12.50;94.50;;;;;;5909068;24;20406;-85
2023/01/08 15:07:10;;;;;;;2.03;0.70;;;12.30;94.80;;;;;;5978655;24;20436;-87
2023/01/08 15:10:51;;;;;;;0.70;0.60;;;12.20;95.70;;;;;;5969479;23;20409;-84
2023/01/08 15:14:23;;;;;;;3.70;0.77;;;12.50;95.10;;;;;;6079509;23;20491;-85
2023/01/08 15:17:32;;;;;;;1.10;0.67;;;12.30;95.20;;;;;;5964905;23;20398;-86
2023/01/08 15:20:41;;;;;;;2.70;0.60;;;12.70;94.40;;;;;;5995221;23;20383;-86
2023/01/08 15:24:08;;;;;;;0.90;0.70;;;12.70;94.20;;;;;;6016705;23;20371;-85
2023/01/08 15:49:45;;;;;;;1.23;1.07;;;12.40;95.80;;;;;;6160688;23;20413;-85
2023/01/08 15:53:55;;;;;;;4.40;1.57;;;12.30;95.90;;;;;;6140040;23;20402;-86
2023/01/08 15:57:34;;;;;;;0.93;0.83;;;12.10;96.10;;;;;;6050698;23;20429;-87
2023/01/08 16:08:15;;;;;;;1.20;0.77;;;12.00;95.60;;;;;;6154913;23;20382;-85
2023/01/08 16:12:06;;;;;;;;;;;;;;;;;;;;;
2023/01/08 16:15:18;;;;;;;0.97;0.70;;;11.80;96.00;;;;;;6130682;23;20442;-87
2023/01/08 16:19:16;;;;;;;1.07;0.80;;;11.60;96.20;;;;;;6108136;23;20421;-87
2023/01/08 16:26:35;;;;;;;1.43;1.27;;;11.70;96.50;;;;;;6107464;23;20540;-86
2023/01/08 16:30:20;;;;;;;1.43;1.00;;;11.70;96.40;;;;;;6070421;23;20435;-85
2023/01/08 16:38:14;;;;;;;;;;;;;;;;;;;;;
2023/01/08 16:41:08;;;;;;;0.70;0.60;;;11.60;97.10;;;;;;5970279;24;20395;-84
2023/01/08 16:44:19;;;;;;;0.73;0.73;;;11.70;97.30;;;;;;5990824;24;20420;-84
2023/01/08 16:55:31;;;;;;;2.70;0.80;;;11.50;97.80;;;;;;6171044;23;20501;-87
2023/01/08 16:58:52;;;;;;;2.83;1.00;;;11.50;98.00;;;;;;6124865;23;20407;-86
2023/01/08 17:02:37;;;;;;;;;;;;;;;;;;;;;
2023/01/08 17:06:31;;;;;;;1.50;1.03;;;11.40;97.90;;;;;;6178440;23;20410;-86
2023/01/08 17:18:14;;;;;;;1.70;1.20;;;11.20;98.30;;;;;;6195104;23;20537;-86
2023/01/08 17:21:44;;;;;;;3.50;1.30;;;11.30;98.40;;;;;;6206596;23;20533;-85
2023/01/08 17:32:05;;;;;;;;;;;;;;;;;;;;;
2023/01/08 17:39:33;;;;;;;2.60;1.07;;;11.30;98.20;;;;;;6079028;23;20438;-86
2023/01/08 17:45:49;;;;;;;1.23;1.13;;;11.30;98.50;;;;;;6061030;23;20425;-87
2023/01/08 17:48:37;;;;;;;0.90;0.87;;;11.20;98.50;;;;;;6054570;23;20391;-86
2023/01/08 17:55:14;;;;;;;3.20;1.10;;;11.50;98.10;;;;;;6136131;23;20481;-86
2023/01/08 17:58:16;;;;;;;2.93;1.13;;;11.50;98.00;;;;;;6143903;23;20411;-87
2023/01/08 18:01:33;;;;;;;1.33;1.20;;;11.40;98.20;;;;;;6143430;23;20427;-88
2023/01/08 18:07:35;;;;;;;;;;;;;;;;;;;;;
2023/01/08 18:10:38;;;;;;;2.40;1.27;;;11.30;98.20;;;;;;6155734;22;20477;-89
2023/01/08 18:13:41;;;;;;;2.07;1.20;;;11.30;98.40;;;;;;6210265;22;20483;-84
2023/01/08 18:16:24;;;;;;;1.47;1.37;;;11.30;98.40;;;;;;6210606;22;20421;-87
2023/01/08 18:19:32;;;;;;;4.50;1.60;;;11.20;98.60;;;;;;6187398;23;20493;-86
2023/01/08 18:22:16;;;;;;;3.00;1.50;;;11.10;98.50;;;;;;6153701;23;20398;-84
2023/01/08 18:28:52;;;;;;;3.40;1.50;;;11.00;99.00;;;;;;6183666;23;20440;-84
2023/01/08 18:31:56;;;;;;;3.93;1.87;;;11.00;98.70;;;;;;6163632;23;20974;-87
2023/01/08 18:34:41;;;;;;;2.10;1.10;;;10.90;98.80;;;;;;6196589;23;20430;-85
2023/01/08 18:37:31;;;;;;;2.20;1.30;;;11.00;98.80;;;;;;6104893;23;20550;-85
2023/01/08 18:41:07;;;;;;;3.50;1.43;;;11.10;98.60;;;;;;6098887;23;20556;-86
2023/01/08 18:44:31;;;;;;;2.10;1.07;;;11.00;98.60;;;;;;5963213;24;20397;-86
2023/01/08 18:47:27;;;;;;;;;;;;;;;;;;;;;
2023/01/08 18:50:56;;;;;;;1.50;1.40;;;11.10;98.50;;;;;;5952981;24;20543;-86
2023/01/08 18:53:58;;;;;;;1.30;1.10;;;11.10;98.50;;;;;;6005216;23;20524;-86
2023/01/08 18:56:57;;;;;;;1.97;1.47;;;11.10;98.20;;;;;;6046015;23;20420;-87
2023/01/08 19:00:04;;;;;;;1.70;1.50;;;11.10;98.20;;;;;;6099198;23;20413;-88
2023/01/08 19:03:14;;;;;;;3.23;1.13;;;11.10;98.10;;;;;;6116833;23;20475;-85
2023/01/08 19:06:08;;;;;;;2.13;1.03;;;11.10;98.10;;;;;;6065777;23;20429;-85
2023/01/08 19:09:14;;;;;;;1.50;1.40;;;11.00;98.50;;;;;;6103492;23;20513;-86
2023/01/08 19:12:25;;;;;;;3.00;1.30;;;11.10;98.40;;;;;;6094986;23;20432;-87
2023/01/08 19:15:43;;;;;;;2.70;1.27;;;11.00;98.50;;;;;;6043631;23;20605;-86
2023/01/08 19:18:31;;;;;;;2.50;1.50;;;11.00;98.60;;;;;;6059137;23;20401;-87
2023/01/08 19:24:17;;;;;;;4.93;1.37;;;10.80;99.00;;;;;;6069246;23;20422;-85
2023/01/08 19:26:51;;;;;;;4.67;1.37;;;10.70;99.50;;;;;;6052879;23;21035;-84
2023/01/08 19:29:36;;;;;;;1.80;1.70;;;10.70;99.90;;;;;;6055076;23;20488;-85
2023/01/08 19:32:10;;;;;;;2.23;2.13;;;10.50;99.90;;;;;;6059452;23;20401;-84
2023/01/08 19:34:46;;;;;;;1.70;1.50;;;10.60;99.90;;;;;;6171026;23;20492;-86
2023/01/08 19:44:40;;;;;;;1.93;1.47;;;10.70;99.90;;;;;;6116972;23;20405;-86
2023/01/08 19:47:27;;;;;;;2.00;1.20;;;10.70;99.90;;;;;;6209118;23;20390;-86
2023/01/08 19:50:03;;;;;;;4.77;1.50;;;10.70;99.90;;;;;;6209437;23;20412;-87
2023/01/08 19:52:50;;;;;;;2.23;1.50;;;10.70;99.90;;;;;;6146558;23;20833;-88
2023/01/08 19:55:49;;;;;;;;;;;;;;;;;;;;;
2023/01/08 19:58:40;;;;;;;1.60;1.20;;;10.60;99.90;;;;;;6197191;23;20362;-88
2023/01/08 20:02:10;;;;;;;2.00;1.50;;;10.70;99.90;;;;;;6190081;23;20397;-87
2023/01/08 20:05:37;;;;;;;;;;;;;;;;;;;;;
2023/01/08 20:08:49;;;;;;;1.37;1.10;;;10.80;99.90;;;;;;6173528;23;20417;-86
2023/01/08 20:11:39;;;;;;;1.87;1.07;;;10.70;99.90;;;;;;6171145;23;20981;-87
2023/01/08 20:14:19;;;;;;;1.30;1.20;;;10.70;99.90;;;;;;6171763;23;20511;-86
2023/01/08 20:17:05;;;;;;;1.63;1.20;;;10.70;99.90;;;;;;6105331;23;20427;-89
2023/01/08 20:20:12;;;;;;;0.80;0.80;;;10.50;99.90;;;;;;6076813;23;20413;-87
2023/01/08 20:23:31;;;;;;;2.13;1.30;;;10.70;99.90;;;;;;6105206;23;20983;-87
2023/01/08 20:26:25;;;;;;;2.90;1.63;;;10.50;99.90;;;;;;6081860;23;20444;-88
2023/01/08 20:29:40;;;;;;;1.17;1.07;;;10.50;99.90;;;;;;6107678;23;20457;-87
2023/01/08 20:32:33;;;;;;;2.00;1.20;;;10.80;99.90;;;;;;6060748;23;21177;-85
2023/01/08 20:35:47;;;;;;;2.53;1.73;;;10.60;99.90;;;;;;6090757;23;20446;-86
2023/01/08 20:41:50;;;;;;;1.70;1.60;;;10.80;99.90;;;;;;6104462;23;20412;-85
2023/01/08 20:44:53;;;;;;;2.30;1.80;;;10.70;99.90;;;;;;6107315;23;21248;-87
2023/01/08 20:48:26;;;;;;;1.27;1.17;;;10.60;99.90;;;;;;6144199;23;20448;-86
2023/01/08 20:56:04;;;;;;;3.97;1.47;;;10.80;99.90;;;;;;6199761;23;20437;-85
2023/01/08 20:59:00;;;;;;;2.73;1.20;;;10.70;99.90;;;;;;6077418;23;20453;-86
2023/01/08 21:02:04;;;;;;;1.43;1.30;;;10.80;99.90;;;;;;5987485;24;20412;-86
2023/01/08 21:05:14;;;;;;;2.93;1.40;;;11.10;99.90;;;;;;6001318;23;20484;-85
2023/01/08 21:08:09;;;;;;;2.00;1.60;;;10.90;99.90;;;;;;6074775;23;20416;-85
2023/01/08 21:11:24;;;;;;;;;;;;;;;;;;;;;
2023/01/08 21:14:39;;;;;;;2.20;1.43;;;11.00;99.90;;;;;;6071643;23;21090;-86
2023/01/08 21:17:36;;;;;;;1.77;1.67;;;11.00;99.90;;;;;;6068657;23;20445;-86
2023/01/08 21:20:44;;;;;;;1.20;1.10;;;11.00;99.90;;;;;;6073521;23;20404;-87
2023/01/08 21:27:31;;;;;;;1.70;1.20;;;11.10;99.90;;;;;;6191917;23;20940;-87
2023/01/08 21:30:22;;;;;;;1.70;1.20;;;11.10;99.90;;;;;;6163341;23;21286;-84
2023/01/08 21:33:25;;;;;;;1.13;1.10;;;11.20;99.90;;;;;;6168172;23;20508;-87
2023/01/08 21:47:19;;;;;;;1.00;0.87;;;11.20;99.90;;;;;;6196000;23;20450;-88
2023/01/08 21:49:49;;;;;;;2.33;1.20;;;11.20;99.90;;;;;;6195515;23;20405;-88
2023/01/08 22:10:58;;;;;;;;;;;;;;;;;;;;;
2023/01/08 22:14:40;;;;;;;;;;;;;;;;;;;;;
2023/01/08 22:17:41;;;;;;;1.67;1.50;;;11.30;99.90;;;;;;6162520;23;20521;-86
2023/01/08 22:20:35;;;;;;;1.77;1.00;;;11.30;99.90;;;;;;6169415;23;20425;-87
2023/01/08 22:23:20;;;;;;;1.33;0.87;;;11.10;99.90;;;;;;6068246;23;20481;-85
2023/01/08 22:26:18;;;;;;;2.50;1.30;;;11.20;99.90;;;;;;6125125;22;20422;-89
2023/01/08 22:29:17;;;;;;;1.83;1.50;;;11.30;99.90;;;;;;6176393;22;20410;-87
2023/01/08 22:32:20;;;;;;;1.67;1.10;;;11.30;99.90;;;;;;6198834;23;20413;-87
2023/01/08 22:39:18;;;;;;;2.07;1.37;;;11.30;99.90;;;;;;6128675;23;21015;-89
2023/01/08 22:42:20;;;;;;;2.70;1.80;;;11.40;99.90;;;;;;6154577;23;20471;-88
2023/01/08 22:45:51;;;;;;;2.00;1.33;;;11.30;99.90;;;;;;6178122;23;20422;-86
2023/01/08 22:52:18;;;;;;;4.83;1.93;;;11.30;99.90;;;;;;6000180;23;20399;-87
2023/01/08 23:00:43;;;;;;;;;;;;;;;;;;;;;
2023/01/08 23:25:37;;;;;;;4.60;0.97;;;10.80;99.90;;;;;;5932419;24;20410;-86
2023/01/08 23:29:03;;;;;;;1.50;0.80;;;10.80;99.90;;;;;;5926570;23;20451;-87
2023/01/08 23:31:58;;;;;;;1.13;0.70;;;10.80;99.90;;;;;;6001711;23;20418;-86
2023/01/08 23:45:20;;;;;;;1.37;0.50;;;10.60;99.90;;;;;;5838609;24;20400;-85
2023/01/08 23:48:00;;;;;;;0.60;0.60;;;10.60;99.90;;;;;;5793174;24;20403;-85
2023/01/08 23:54:48;;;;;;;0.60;0.50;;;10.50;99.90;;;;;;5819901;24;20486;-86
2023/01/08 23:58:01;;;;;;;0.40;0.40;;;10.40;99.90;;;;;;5820811;24;20553;-86
